createdAt,value
2022-11-05T00:00:18.514Z,1.75
2022-11-05T00:01:39.869Z,1.17
2022-11-05T00:03:01.296Z,1.13
2022-11-05T00:04:29.817Z,1.17
2022-11-05T00:05:56.655Z,1.08
2022-11-05T00:07:50.055Z,1.38
2022-11-05T00:09:11.322Z,1.00
2022-11-05T00:10:27.199Z,0.90
2022-11-05T00:11:50.369Z,0.90
2022-11-05T00:13:13.165Z,1.17
2022-11-05T00:14:34.335Z,1.02
2022-11-05T00:15:55.489Z,1.13
2022-11-05T00:16:57.918Z,1.20
2022-11-05T00:18:02.578Z,0.88
2022-11-05T00:19:08.184Z,1.30
2022-11-05T00:20:13.719Z,0.95
2022-11-05T00:21:34.710Z,1.00
2022-11-05T00:22:55.637Z,1.20
2022-11-05T00:24:21.727Z,1.10
2022-11-05T00:25:27.918Z,1.00
2022-11-05T00:26:31.444Z,1.20
2022-11-05T00:27:34.302Z,1.15
2022-11-05T00:28:43.818Z,1.23
2022-11-05T00:29:46.597Z,1.15
2022-11-05T00:30:49.888Z,1.13
2022-11-05T00:31:52.271Z,1.20
2022-11-05T00:33:00.054Z,1.10
2022-11-05T00:34:02.801Z,1.30
2022-11-05T00:35:07.454Z,1.13
2022-11-05T00:36:11.479Z,1.00
2022-11-05T00:37:21.134Z,1.15
2022-11-05T00:38:24.495Z,1.10
2022-11-05T00:39:27.103Z,1.45
2022-11-05T00:40:32.108Z,1.20
2022-11-05T00:41:34.857Z,1.48
2022-11-05T00:42:57.521Z,1.30
2022-11-05T00:44:21.706Z,0.98
2022-11-05T00:45:24.230Z,1.48
2022-11-05T00:46:28.978Z,1.25
2022-11-05T00:47:51.953Z,0.88
2022-11-05T00:49:14.456Z,1.15
2022-11-05T00:50:17.848Z,1.50
2022-11-05T00:51:20.724Z,1.30
2022-11-05T00:52:42.111Z,1.52
2022-11-05T00:53:50.464Z,1.33
2022-11-05T00:54:52.986Z,1.10
2022-11-05T00:56:03.252Z,1.23
2022-11-05T00:57:05.870Z,1.45
2022-11-05T00:58:13.749Z,1.42
2022-11-05T00:59:16.587Z,1.10
2022-11-05T01:00:19.417Z,1.10
2022-11-05T01:01:22.069Z,1.48
2022-11-05T01:02:24.819Z,1.23
2022-11-05T01:03:33.744Z,1.30
2022-11-05T01:04:36.191Z,1.10
2022-11-05T01:05:43.716Z,1.40
2022-11-05T01:06:46.392Z,1.30
2022-11-05T01:07:48.932Z,1.30
2022-11-05T01:08:51.217Z,1.05
2022-11-05T01:09:53.508Z,1.50
2022-11-05T01:10:58.189Z,1.13
2022-11-05T01:12:00.580Z,1.10
2022-11-05T01:13:02.920Z,1.13
2022-11-05T01:14:08.090Z,1.40
2022-11-05T01:15:10.519Z,1.70
2022-11-05T01:16:12.969Z,1.17
2022-11-05T01:17:15.398Z,1.10
2022-11-05T01:18:20.866Z,1.40
2022-11-05T01:19:25.967Z,1.25
2022-11-05T01:20:28.574Z,1.13
2022-11-05T01:21:31.152Z,1.30
2022-11-05T01:22:36.815Z,1.45
2022-11-05T01:23:39.277Z,1.60
2022-11-05T01:24:41.588Z,1.63
2022-11-05T01:25:44.434Z,1.45
2022-11-05T01:26:46.740Z,1.30
2022-11-05T01:27:49.122Z,1.42
2022-11-05T01:28:56.514Z,1.40
2022-11-05T01:29:58.983Z,1.60
2022-11-05T01:31:01.300Z,1.30
2022-11-05T01:32:03.861Z,1.92
2022-11-05T01:33:06.650Z,1.58
2022-11-05T01:34:09.244Z,1.98
2022-11-05T01:35:14.262Z,1.70
2022-11-05T01:36:16.997Z,1.42
2022-11-05T01:37:19.347Z,1.50
2022-11-05T01:38:21.615Z,1.05
2022-11-05T01:39:23.951Z,1.65
2022-11-05T01:40:26.471Z,1.40
2022-11-05T01:41:29.426Z,1.20
2022-11-05T01:42:32.789Z,1.50
2022-11-05T01:44:04.362Z,1.50
2022-11-05T01:45:10.043Z,1.33
2022-11-05T01:46:12.528Z,1.30
2022-11-05T01:47:30.720Z,1.40
2022-11-05T01:48:35.948Z,1.60
2022-11-05T01:49:38.398Z,1.20
2022-11-05T01:50:53.396Z,1.27
2022-11-05T01:51:58.741Z,1.60
2022-11-05T01:53:06.112Z,1.50
2022-11-05T01:54:12.511Z,1.60
2022-11-05T01:55:18.611Z,1.40
2022-11-05T01:56:28.314Z,1.40
2022-11-05T01:57:32.394Z,1.75
2022-11-05T01:58:58.708Z,1.80
2022-11-05T02:00:02.099Z,10.30
2022-11-05T02:01:16.062Z,5.00
2022-11-05T02:02:19.139Z,16.88
2022-11-05T02:03:21.776Z,7.13
2022-11-05T02:04:32.864Z,5.88
2022-11-05T02:05:35.657Z,5.88
2022-11-05T02:06:45.936Z,3.88
2022-11-05T02:07:49.048Z,3.08
2022-11-05T02:09:03.252Z,2.78
2022-11-05T02:10:10.673Z,2.30
2022-11-05T02:11:17.195Z,2.20
2022-11-05T02:12:21.232Z,1.88
2022-11-05T02:13:23.629Z,2.35
2022-11-05T02:14:31.021Z,1.80
2022-11-05T02:15:52.759Z,1.73
2022-11-05T02:17:09.899Z,2.30
2022-11-05T02:18:33.141Z,1.98
2022-11-05T02:20:00.422Z,3.00
2022-11-05T02:21:19.919Z,8.43
2022-11-05T02:22:24.958Z,22.45
2022-11-05T02:24:09.836Z,13.35
2022-11-05T02:26:05.144Z,68.53
2022-11-05T02:27:12.039Z,17.02
2022-11-05T02:28:26.248Z,10.43
2022-11-05T02:30:05.521Z,7.65
2022-11-05T02:31:15.968Z,6.65
2022-11-05T02:32:21.124Z,5.97
2022-11-05T02:33:38.638Z,5.88
2022-11-05T02:34:50.514Z,4.95
2022-11-05T02:36:11.667Z,4.78
2022-11-05T02:37:40.266Z,4.50
2022-11-05T02:38:50.368Z,4.38
2022-11-05T02:40:24.146Z,4.40
2022-11-05T02:42:04.531Z,5.10
2022-11-05T02:43:30.863Z,15.65
2022-11-05T02:44:51.237Z,53.88
2022-11-05T02:46:13.178Z,47.30
2022-11-05T02:47:29.653Z,17.75
2022-11-05T02:48:57.252Z,12.07
2022-11-05T02:50:35.345Z,41.10
2022-11-05T02:51:58.324Z,38.95
2022-11-05T02:53:11.656Z,18.92
2022-11-05T02:54:39.732Z,22.33
2022-11-05T02:56:05.734Z,20.70
2022-11-05T02:57:19.274Z,17.27
2022-11-05T02:58:21.839Z,15.95
2022-11-05T02:59:26.684Z,15.10
2022-11-05T03:00:57.227Z,13.70
2022-11-05T03:02:03.340Z,13.05
2022-11-05T03:03:26.955Z,13.35
2022-11-05T03:04:30.383Z,12.68
2022-11-05T03:06:05.807Z,11.73
2022-11-05T03:07:42.599Z,12.00
2022-11-05T03:08:53.658Z,11.68
2022-11-05T03:10:23.508Z,11.88
2022-11-05T03:11:29.649Z,20.48
2022-11-05T03:12:50.700Z,63.15
2022-11-05T03:14:18.302Z,32.35
2022-11-05T03:15:52.809Z,19.98
2022-11-05T03:17:33.646Z,14.43
2022-11-05T03:18:53.024Z,9.65
2022-11-05T03:20:26.079Z,10.23
2022-11-05T03:21:50.359Z,9.40
2022-11-05T03:23:32.676Z,10.75
2022-11-05T03:24:51.262Z,10.63
2022-11-05T03:26:27.214Z,11.45
2022-11-05T03:27:33.280Z,12.38
2022-11-05T03:28:38.620Z,11.50
2022-11-05T03:29:49.572Z,11.13
2022-11-05T03:30:56.659Z,11.30
2022-11-05T03:32:01.801Z,11.15
2022-11-05T03:33:11.771Z,11.00
2022-11-05T03:34:17.867Z,10.65
2022-11-05T03:35:27.012Z,11.20
2022-11-05T03:36:39.616Z,11.45
2022-11-05T03:37:43.957Z,10.90
2022-11-05T03:38:51.462Z,11.27
2022-11-05T03:39:57.898Z,11.30
2022-11-05T03:41:04.843Z,9.88
2022-11-05T03:42:11.254Z,11.30
2022-11-05T03:43:14.592Z,11.68
2022-11-05T03:44:25.126Z,10.48
2022-11-05T03:45:38.304Z,10.67
2022-11-05T03:46:49.297Z,10.70
2022-11-05T03:47:56.518Z,10.95
2022-11-05T03:49:03.207Z,10.57
2022-11-05T03:50:21.744Z,11.05
2022-11-05T03:51:41.748Z,10.20
2022-11-05T03:52:52.627Z,10.30
2022-11-05T03:53:58.715Z,10.48
2022-11-05T03:55:01.117Z,10.20
2022-11-05T03:56:10.594Z,10.13
2022-11-05T03:57:23.486Z,10.25
2022-11-05T03:58:27.048Z,11.00
2022-11-05T03:59:31.282Z,10.18
2022-11-05T04:00:33.794Z,9.68
2022-11-05T04:01:38.351Z,9.63
2022-11-05T04:02:41.807Z,13.45
2022-11-05T04:03:44.150Z,23.15
2022-11-05T04:04:46.562Z,18.25
2022-11-05T04:06:09.242Z,39.38
2022-11-05T04:07:31.313Z,25.23
2022-11-05T04:08:52.317Z,43.28
2022-11-05T04:10:13.454Z,32.83
2022-11-05T04:11:34.597Z,46.53
2022-11-05T04:12:55.600Z,20.70
2022-11-05T04:13:57.888Z,24.25
2022-11-05T04:15:00.340Z,22.33
2022-11-05T04:16:21.465Z,19.25
2022-11-05T04:17:23.846Z,17.75
2022-11-05T04:18:26.169Z,17.17
2022-11-05T04:19:48.588Z,17.98
2022-11-05T04:21:09.694Z,18.05
2022-11-05T04:22:30.848Z,16.77
2022-11-05T04:23:51.868Z,16.77
2022-11-05T04:24:54.249Z,16.35
2022-11-05T04:25:56.577Z,15.32
2022-11-05T04:26:59.256Z,16.63
2022-11-05T04:28:01.706Z,15.02
2022-11-05T04:29:23.176Z,17.65
2022-11-05T04:30:25.613Z,15.80
2022-11-05T04:31:27.876Z,17.00
2022-11-05T04:32:30.182Z,15.98
2022-11-05T04:33:32.510Z,15.23
2022-11-05T04:34:34.817Z,16.17
2022-11-05T04:35:39.953Z,16.42
2022-11-05T04:36:42.957Z,16.23
2022-11-05T04:37:45.230Z,16.15
2022-11-05T04:38:47.516Z,15.90
2022-11-05T04:39:49.871Z,15.68
2022-11-05T04:40:52.218Z,15.63
2022-11-05T04:41:54.539Z,14.30
2022-11-05T04:42:57.039Z,15.00
2022-11-05T04:43:59.404Z,14.65
2022-11-05T04:45:01.699Z,13.55
2022-11-05T04:46:04.020Z,13.75
2022-11-05T04:47:06.383Z,14.27
2022-11-05T04:48:08.716Z,13.77
2022-11-05T04:49:11.111Z,12.80
2022-11-05T04:50:13.421Z,12.88
2022-11-05T04:51:15.836Z,13.52
2022-11-05T04:52:18.207Z,12.60
2022-11-05T04:53:20.452Z,12.82
2022-11-05T04:54:22.819Z,12.52
2022-11-05T04:55:26.274Z,12.70
2022-11-05T04:56:28.589Z,38.90
2022-11-05T04:57:30.960Z,86.15
2022-11-05T04:58:33.338Z,104.20
2022-11-05T04:59:36.045Z,83.10
2022-11-05T05:00:38.600Z,56.30
2022-11-05T05:01:41.138Z,55.30
2022-11-05T05:02:44.208Z,49.67
2022-11-05T05:03:48.286Z,50.83
2022-11-05T05:04:50.623Z,44.22
2022-11-05T05:05:53.921Z,40.13
2022-11-05T05:06:56.535Z,36.65
2022-11-05T05:08:02.500Z,30.55
2022-11-05T05:09:04.987Z,27.77
2022-11-05T05:10:08.987Z,26.17
2022-11-05T05:11:13.309Z,26.25
2022-11-05T05:12:15.871Z,27.30
2022-11-05T05:13:18.183Z,25.77
2022-11-05T05:14:20.482Z,25.42
2022-11-05T05:15:23.457Z,25.60
2022-11-05T05:16:27.304Z,24.95
2022-11-05T05:17:29.596Z,25.45
2022-11-05T05:18:31.941Z,24.90
2022-11-05T05:19:57.200Z,23.58
2022-11-05T05:21:18.275Z,23.88
2022-11-05T05:22:20.661Z,22.50
2022-11-05T05:23:23.098Z,23.65
2022-11-05T05:24:25.465Z,23.40
2022-11-05T05:25:27.841Z,22.98
2022-11-05T05:26:30.216Z,24.85
2022-11-05T05:27:32.585Z,23.00
2022-11-05T05:28:34.991Z,23.52
2022-11-05T05:29:37.312Z,24.10
2022-11-05T05:30:39.657Z,22.75
2022-11-05T05:31:42.535Z,23.35
2022-11-05T05:32:44.934Z,22.83
2022-11-05T05:33:47.539Z,23.17
2022-11-05T05:34:50.021Z,24.05
2022-11-05T05:35:52.390Z,22.08
2022-11-05T05:36:54.833Z,22.95
2022-11-05T05:37:57.205Z,22.00
2022-11-05T05:38:59.630Z,21.42
2022-11-05T05:40:01.987Z,21.48
2022-11-05T05:41:04.481Z,21.33
2022-11-05T05:42:06.817Z,22.45
2022-11-05T05:43:09.376Z,17.77
2022-11-05T05:44:11.979Z,19.58
2022-11-05T05:45:14.282Z,137.60
2022-11-05T05:46:18.447Z,59.25
2022-11-05T05:47:20.802Z,30.38
2022-11-05T05:48:24.359Z,28.50
2022-11-05T05:49:26.640Z,27.27
2022-11-05T05:50:29.019Z,26.90
2022-11-05T05:51:31.402Z,28.60
2022-11-05T05:52:33.739Z,29.00
2022-11-05T05:53:36.748Z,26.88
2022-11-05T05:54:42.646Z,27.10
2022-11-05T05:55:45.488Z,28.20
2022-11-05T05:56:47.793Z,26.20
2022-11-05T05:57:50.126Z,27.90
2022-11-05T05:58:52.485Z,26.13
2022-11-05T05:59:54.817Z,25.17
2022-11-05T06:01:01.459Z,25.10
2022-11-05T06:02:03.987Z,25.10
2022-11-05T06:03:06.565Z,24.48
2022-11-05T06:04:09.783Z,24.13
2022-11-05T06:05:12.125Z,25.45
2022-11-05T06:06:16.192Z,25.42
2022-11-05T06:07:18.575Z,22.60
2022-11-05T06:08:20.841Z,23.17
2022-11-05T06:09:23.220Z,24.38
2022-11-05T06:10:25.981Z,22.20
2022-11-05T06:11:28.515Z,22.52
2022-11-05T06:12:30.968Z,21.30
2022-11-05T06:13:33.485Z,21.50
2022-11-05T06:14:35.842Z,22.63
2022-11-05T06:15:38.163Z,21.00
2022-11-05T06:16:40.657Z,21.00
2022-11-05T06:17:45.893Z,21.58
2022-11-05T06:18:49.053Z,20.98
2022-11-05T06:19:51.407Z,21.48
2022-11-05T06:20:53.768Z,23.42
2022-11-05T06:21:56.137Z,25.42
2022-11-05T06:22:58.518Z,27.33
2022-11-05T06:24:02.518Z,31.55
2022-11-05T06:25:06.107Z,24.75
2022-11-05T06:26:10.854Z,25.02
2022-11-05T06:27:13.209Z,22.67
2022-11-05T06:28:15.566Z,21.23
2022-11-05T06:29:17.954Z,20.77
2022-11-05T06:30:21.623Z,20.45
2022-11-05T06:31:24.354Z,20.33
2022-11-05T06:32:26.684Z,20.10
2022-11-05T06:33:29.390Z,20.90
2022-11-05T06:34:31.683Z,20.35
2022-11-05T06:35:34.029Z,21.60
2022-11-05T06:36:36.451Z,19.65
2022-11-05T06:37:38.836Z,21.13
2022-11-05T06:38:41.200Z,20.10
2022-11-05T06:39:43.513Z,20.70
2022-11-05T06:40:45.947Z,18.77
2022-11-05T06:42:16.619Z,19.05
2022-11-05T06:43:10.843Z,19.40
2022-11-05T06:44:13.285Z,18.15
2022-11-05T06:45:15.629Z,18.67
2022-11-05T06:46:18.012Z,18.48
2022-11-05T06:47:20.396Z,19.65
2022-11-05T06:48:23.205Z,19.38
2022-11-05T06:49:25.631Z,19.20
2022-11-05T06:50:28.781Z,18.40
2022-11-05T06:51:31.163Z,19.15
2022-11-05T06:52:38.310Z,18.80
2022-11-05T06:53:43.315Z,19.02
2022-11-05T06:54:45.625Z,19.35
2022-11-05T06:55:47.994Z,18.67
2022-11-05T06:56:50.336Z,18.27
2022-11-05T06:57:52.915Z,17.85
2022-11-05T06:58:55.279Z,18.75
2022-11-05T07:00:02.315Z,19.52
2022-11-05T07:01:09.101Z,17.83
2022-11-05T07:02:13.510Z,18.00
2022-11-05T07:03:16.061Z,18.58
2022-11-05T07:04:18.362Z,18.77
2022-11-05T07:05:20.829Z,19.23
2022-11-05T07:06:23.187Z,17.52
2022-11-05T07:11:07.714Z,17.52
2022-11-05T07:12:10.214Z,17.75
2022-11-05T07:13:12.910Z,17.15
2022-11-05T07:14:15.466Z,17.50
2022-11-05T07:15:17.904Z,17.55
2022-11-05T07:16:20.372Z,18.50
2022-11-05T07:17:23.144Z,15.43
2022-11-05T07:18:25.547Z,11.77
2022-11-05T07:19:27.873Z,9.95
2022-11-05T07:20:33.853Z,9.43
2022-11-05T07:21:36.935Z,9.25
2022-11-05T07:22:39.358Z,8.48
2022-11-05T07:23:41.678Z,11.70
2022-11-05T07:24:47.067Z,30.88
2022-11-05T07:25:49.494Z,62.47
2022-11-05T07:26:51.804Z,35.70
2022-11-05T07:27:54.098Z,38.50
2022-11-05T07:28:56.400Z,37.58
2022-11-05T07:29:58.804Z,32.83
2022-11-05T07:31:01.384Z,28.65
2022-11-05T07:32:03.782Z,20.85
2022-11-05T07:33:06.160Z,21.77
2022-11-05T07:34:08.517Z,21.40
2022-11-05T07:35:10.801Z,20.83
2022-11-05T07:36:14.729Z,20.25
2022-11-05T07:37:17.031Z,20.02
2022-11-05T07:38:19.393Z,21.17
2022-11-05T07:39:21.862Z,18.95
2022-11-05T07:40:26.852Z,19.15
2022-11-05T07:41:29.737Z,18.67
2022-11-05T07:42:34.291Z,20.60
2022-11-05T07:43:36.583Z,18.52
2022-11-05T07:44:38.901Z,19.38
2022-11-05T07:45:41.252Z,18.17
2022-11-05T07:46:43.939Z,19.60
2022-11-05T07:47:51.106Z,17.77
2022-11-05T07:48:53.444Z,18.48
2022-11-05T07:49:55.725Z,17.55
2022-11-05T07:50:58.202Z,18.77
2022-11-05T07:52:00.506Z,18.15
2022-11-05T07:53:09.754Z,17.75
2022-11-05T07:54:12.473Z,18.50
2022-11-05T07:55:16.054Z,18.25
2022-11-05T07:56:18.551Z,17.55
2022-11-05T07:57:20.951Z,17.90
2022-11-05T07:58:23.291Z,18.45
2022-11-05T07:59:25.602Z,17.05
2022-11-05T08:00:28.994Z,17.48
2022-11-05T08:01:31.559Z,17.90
2022-11-05T08:02:34.154Z,17.52
2022-11-05T08:03:36.726Z,17.27
2022-11-05T08:04:40.246Z,17.88
2022-11-05T08:05:45.929Z,17.90
2022-11-05T08:06:48.254Z,16.73
2022-11-05T08:07:50.673Z,19.02
2022-11-05T08:08:52.955Z,19.58
2022-11-05T08:09:55.298Z,20.83
2022-11-05T08:11:05.069Z,18.83
2022-11-05T08:12:08.505Z,21.15
2022-11-05T08:13:12.880Z,21.35
2022-11-05T08:14:15.375Z,21.75
2022-11-05T08:15:17.728Z,20.23
2022-11-05T08:16:20.006Z,17.80
2022-11-05T08:17:22.372Z,19.55
2022-11-05T08:18:31.166Z,19.00
2022-11-05T08:19:33.456Z,18.60
2022-11-05T08:20:36.368Z,18.23
2022-11-05T08:21:38.729Z,18.52
2022-11-05T08:22:44.766Z,19.25
2022-11-05T08:23:47.166Z,18.42
2022-11-05T08:24:49.931Z,18.20
2022-11-05T08:25:52.497Z,17.02
2022-11-05T08:26:54.813Z,17.33
2022-11-05T08:28:03.286Z,18.05
2022-11-05T08:29:05.596Z,17.67
2022-11-05T08:30:09.292Z,18.00
2022-11-05T08:31:11.955Z,18.48
2022-11-05T08:32:14.761Z,16.90
2022-11-05T08:33:17.509Z,17.35
2022-11-05T08:34:19.891Z,17.13
2022-11-05T08:35:22.208Z,17.55
2022-11-05T08:36:24.501Z,16.35
2022-11-05T08:37:26.928Z,17.65
2022-11-05T08:38:29.691Z,16.88
2022-11-05T08:39:32.009Z,18.23
2022-11-05T08:40:36.395Z,16.25
2022-11-05T08:41:40.353Z,17.13
2022-11-05T08:42:42.691Z,17.73
2022-11-05T08:43:45.004Z,16.80
2022-11-05T08:44:47.350Z,17.25
2022-11-05T08:45:50.141Z,16.75
2022-11-05T08:46:52.902Z,22.48
2022-11-05T08:48:06.884Z,23.70
2022-11-05T08:49:09.215Z,24.45
2022-11-05T08:50:11.588Z,20.33
2022-11-05T08:51:13.936Z,18.83
2022-11-05T08:52:16.336Z,20.02
2022-11-05T08:53:18.877Z,18.77
2022-11-05T08:54:21.208Z,18.50
2022-11-05T08:55:23.746Z,17.58
2022-11-05T08:56:26.042Z,18.35
2022-11-05T08:57:28.575Z,16.88
2022-11-05T08:58:31.005Z,16.42
2022-11-05T08:59:33.437Z,16.92
2022-11-05T09:00:37.002Z,17.48
2022-11-05T09:01:39.655Z,17.05
2022-11-05T09:02:42.137Z,17.38
2022-11-05T09:03:44.529Z,16.83
2022-11-05T09:04:46.808Z,16.73
2022-11-05T09:05:49.164Z,15.82
2022-11-05T09:06:51.502Z,15.95
2022-11-05T09:07:59.420Z,15.18
2022-11-05T09:09:03.548Z,15.88
2022-11-05T09:10:06.265Z,16.33
2022-11-05T09:11:08.583Z,16.67
2022-11-05T09:12:12.751Z,16.33
2022-11-05T09:13:19.547Z,16.30
2022-11-05T09:14:22.544Z,16.02
2022-11-05T09:15:25.034Z,17.15
2022-11-05T09:16:27.551Z,16.27
2022-11-05T09:17:29.908Z,15.25
2022-11-05T09:18:33.318Z,16.25
2022-11-05T09:19:39.830Z,16.60
2022-11-05T09:20:42.660Z,16.10
2022-11-05T09:21:44.984Z,16.40
2022-11-05T09:22:47.893Z,16.67
2022-11-05T09:23:50.375Z,16.10
2022-11-05T09:24:52.741Z,15.32
2022-11-05T09:25:55.126Z,15.93
2022-11-05T09:26:57.512Z,16.08
2022-11-05T09:28:13.422Z,15.57
2022-11-05T09:29:18.481Z,16.48
2022-11-05T09:30:20.787Z,15.02
2022-11-05T09:31:23.237Z,16.73
2022-11-05T09:32:25.540Z,15.07
2022-11-05T09:33:28.083Z,15.10
2022-11-05T09:34:30.426Z,15.82
2022-11-05T09:35:32.736Z,16.63
2022-11-05T09:36:35.018Z,16.42
2022-11-05T09:37:37.981Z,17.48
2022-11-05T09:38:40.613Z,19.50
2022-11-05T09:39:42.906Z,17.10
2022-11-05T09:41:08.529Z,16.02
2022-11-05T09:42:15.418Z,16.50
2022-11-05T09:43:23.246Z,16.05
2022-11-05T09:44:44.745Z,15.35
2022-11-05T09:45:50.280Z,15.45
2022-11-05T09:47:01.010Z,14.70
2022-11-05T09:48:14.622Z,15.07
2022-11-05T09:49:29.408Z,15.48
2022-11-05T09:50:52.145Z,14.05
2022-11-05T09:51:56.436Z,16.13
2022-11-05T09:52:58.998Z,13.93
2022-11-05T09:54:01.823Z,14.82
2022-11-05T09:55:14.346Z,14.27
2022-11-05T09:56:23.712Z,14.40
2022-11-05T09:57:31.265Z,15.15
2022-11-05T09:58:43.537Z,14.70
2022-11-05T09:59:49.932Z,13.82
2022-11-05T10:00:52.889Z,14.95
2022-11-05T10:02:04.063Z,14.07
2022-11-05T10:03:17.592Z,15.02
2022-11-05T10:04:23.502Z,14.73
2022-11-05T10:05:27.479Z,14.82
2022-11-05T10:06:29.892Z,14.48
2022-11-05T10:07:41.002Z,12.48
2022-11-05T10:08:45.223Z,14.00
2022-11-05T10:09:52.212Z,13.55
2022-11-05T10:11:00.239Z,22.90
2022-11-05T10:12:12.280Z,32.33
2022-11-05T10:13:41.624Z,28.98
2022-11-05T10:14:50.191Z,37.78
2022-11-05T10:16:08.873Z,24.48
2022-11-05T10:17:24.429Z,26.52
2022-11-05T10:18:33.523Z,23.85
2022-11-05T10:19:43.499Z,23.73
2022-11-05T10:20:46.235Z,23.23
2022-11-05T10:23:17.628Z,18.83
2022-11-05T10:24:22.691Z,20.15
2022-11-05T10:25:30.665Z,20.02
2022-11-05T10:26:33.102Z,18.80
2022-11-05T10:27:37.411Z,18.73
2022-11-05T10:28:39.876Z,19.02
2022-11-05T10:29:43.767Z,19.25
2022-11-05T10:30:48.483Z,19.20
2022-11-05T10:31:53.615Z,17.17
2022-11-05T10:32:59.328Z,17.80
2022-11-05T10:34:05.517Z,18.27
2022-11-05T10:35:13.084Z,19.08
2022-11-05T10:36:31.976Z,17.85
2022-11-05T10:37:40.511Z,17.20
2022-11-05T10:38:43.461Z,18.05
2022-11-05T10:39:45.792Z,16.48
2022-11-05T10:41:22.514Z,18.02
2022-11-05T10:42:58.646Z,16.70
2022-11-05T10:44:39.573Z,16.75
2022-11-05T10:46:15.544Z,16.92
2022-11-05T10:47:45.321Z,16.80
2022-11-05T10:49:18.641Z,19.38
2022-11-05T10:50:25.933Z,19.15
2022-11-05T10:51:29.495Z,18.27
2022-11-05T10:52:52.393Z,20.10
2022-11-05T10:54:01.939Z,16.60
2022-11-05T10:55:16.538Z,21.13
2022-11-05T10:56:32.446Z,23.02
2022-11-05T10:57:36.394Z,28.20
2022-11-05T10:58:52.833Z,21.02
2022-11-05T11:00:15.218Z,18.42
2022-11-05T11:01:17.933Z,23.60
2022-11-05T11:02:28.201Z,24.52
2022-11-05T11:03:41.522Z,27.33
2022-11-05T11:04:50.631Z,28.98
2022-11-05T11:06:18.903Z,24.38
2022-11-05T11:07:24.669Z,23.50
2022-11-05T11:08:28.369Z,19.80
2022-11-05T11:09:33.877Z,19.95
2022-11-05T11:10:51.827Z,20.05
2022-11-05T11:12:01.089Z,18.83
2022-11-05T11:13:04.017Z,19.80
2022-11-05T11:14:09.354Z,18.48
2022-11-05T11:15:27.363Z,19.08
2022-11-05T11:16:37.788Z,17.60
2022-11-05T11:17:40.751Z,17.98
2022-11-05T11:18:44.010Z,18.60
2022-11-05T11:19:46.384Z,18.15
2022-11-05T11:20:49.857Z,17.58
2022-11-05T11:22:13.665Z,16.38
2022-11-05T11:23:17.236Z,16.85
2022-11-05T11:24:28.502Z,16.73
2022-11-05T11:25:50.704Z,17.58
2022-11-05T11:26:53.157Z,16.60
2022-11-05T11:28:00.346Z,18.10
2022-11-05T11:29:08.543Z,16.00
2022-11-05T11:30:18.758Z,15.95
2022-11-05T11:31:23.824Z,16.30
2022-11-05T11:32:35.169Z,16.38
2022-11-05T11:34:42.256Z,14.18
2022-11-05T11:35:46.914Z,15.77
2022-11-05T11:36:56.086Z,15.15
2022-11-05T11:38:00.913Z,16.20
2022-11-05T11:39:05.772Z,16.08
2022-11-05T11:40:21.917Z,16.13
2022-11-05T11:41:32.710Z,16.30
2022-11-05T11:42:39.849Z,15.18
2022-11-05T11:43:43.572Z,15.18
2022-11-05T11:44:47.954Z,15.43
2022-11-05T11:45:53.720Z,14.88
2022-11-05T11:47:03.245Z,14.63
2022-11-05T11:48:07.019Z,15.27
2022-11-05T11:49:30.737Z,14.43
2022-11-05T11:50:45.160Z,14.55
2022-11-05T11:51:50.117Z,13.90
2022-11-05T11:52:52.677Z,14.68
2022-11-05T11:53:59.732Z,14.68
2022-11-05T11:55:11.174Z,14.45
2022-11-05T11:56:13.963Z,14.60
2022-11-05T11:57:25.628Z,14.70
2022-11-05T11:58:49.999Z,13.90
2022-11-05T12:00:08.504Z,13.75
2022-11-05T12:01:39.950Z,14.45
2022-11-05T12:03:02.160Z,13.73
2022-11-05T12:04:23.001Z,14.25
2022-11-05T12:05:42.418Z,14.23
2022-11-05T12:06:52.724Z,13.68
2022-11-05T12:08:11.066Z,14.05
2022-11-05T12:09:29.295Z,14.20
2022-11-05T12:10:39.631Z,13.60
2022-11-05T12:12:05.317Z,12.07
2022-11-05T12:13:19.451Z,29.73
2022-11-05T12:14:22.042Z,76.45
2022-11-05T12:15:46.627Z,63.80
2022-11-05T12:17:11.677Z,63.33
2022-11-05T12:18:32.104Z,54.72
2022-11-05T12:19:57.231Z,47.55
2022-11-05T12:21:48.146Z,37.85
2022-11-05T12:23:18.808Z,26.30
2022-11-05T12:24:45.320Z,26.05
2022-11-05T12:26:14.541Z,22.48
2022-11-05T12:28:01.549Z,22.67
2022-11-05T12:29:37.642Z,21.17
2022-11-05T12:30:52.695Z,21.42
2022-11-05T12:32:36.729Z,20.55
2022-11-05T12:33:46.867Z,21.27
2022-11-05T12:35:14.262Z,21.25
2022-11-05T12:36:28.515Z,9.55
2022-11-05T12:37:59.969Z,7.72
2022-11-05T12:39:32.822Z,5.90
2022-11-05T12:41:25.119Z,5.25
2022-11-05T12:42:39.183Z,6.05
2022-11-05T12:43:54.000Z,5.07
2022-11-05T12:44:59.052Z,5.10
2022-11-05T12:46:25.773Z,5.60
2022-11-05T12:47:34.140Z,40.42
2022-11-05T12:48:42.397Z,24.45
2022-11-05T12:50:17.808Z,22.20
2022-11-05T12:51:49.564Z,56.72
2022-11-05T12:53:10.116Z,45.03
2022-11-05T12:54:31.577Z,31.30
2022-11-05T12:55:48.119Z,25.17
2022-11-05T12:56:58.460Z,22.73
2022-11-05T12:58:26.017Z,21.20
2022-11-05T12:59:36.378Z,22.90
2022-11-05T13:00:46.368Z,22.70
2022-11-05T13:01:55.606Z,21.42
2022-11-05T13:03:05.321Z,19.95
2022-11-05T13:04:17.654Z,18.85
2022-11-05T13:05:37.427Z,17.55
2022-11-05T13:06:44.911Z,17.88
2022-11-05T13:08:02.731Z,17.25
2022-11-05T13:09:10.612Z,16.67
2022-11-05T13:10:25.282Z,16.23
2022-11-05T13:11:38.490Z,15.80
2022-11-05T13:12:43.577Z,16.20
2022-11-05T13:14:13.650Z,16.50
2022-11-05T13:15:26.556Z,15.40
2022-11-05T13:16:31.264Z,15.63
2022-11-05T13:17:51.546Z,15.88
2022-11-05T13:18:58.533Z,16.65
2022-11-05T13:20:17.124Z,15.88
2022-11-05T13:21:24.055Z,14.95
2022-11-05T13:22:55.269Z,15.95
2022-11-05T13:23:57.623Z,15.82
2022-11-05T13:25:12.981Z,15.35
2022-11-05T13:26:20.782Z,16.20
2022-11-05T13:27:59.120Z,16.20
2022-11-05T13:29:23.085Z,15.38
2022-11-05T13:30:30.016Z,14.98
2022-11-05T13:31:45.372Z,15.90
2022-11-05T13:32:56.026Z,16.25
2022-11-05T13:34:03.016Z,14.52
2022-11-05T13:35:14.010Z,15.65
2022-11-05T13:36:50.864Z,14.65
2022-11-05T13:38:17.230Z,15.60
2022-11-05T13:39:35.082Z,16.52
2022-11-05T13:41:12.489Z,16.73
2022-11-05T13:42:39.487Z,13.95
2022-11-05T13:44:30.891Z,13.63
2022-11-05T13:45:39.006Z,17.50
2022-11-05T13:46:57.933Z,23.15
2022-11-05T13:48:35.335Z,17.42
2022-11-05T13:49:40.475Z,16.65
2022-11-05T13:51:20.676Z,14.90
2022-11-05T13:52:39.407Z,15.82
2022-11-05T13:53:58.466Z,14.90
2022-11-05T14:01:17.284Z,10.38
2022-11-05T14:02:27.785Z,8.77
2022-11-05T14:03:30.395Z,8.55
2022-11-05T14:04:50.399Z,8.77
2022-11-05T14:06:20.774Z,7.72
2022-11-05T14:07:26.649Z,7.10
2022-11-05T14:08:32.004Z,6.40
2022-11-05T14:09:36.649Z,7.00
2022-11-05T14:10:42.253Z,6.45
2022-11-05T14:11:53.767Z,6.78
2022-11-05T14:12:59.175Z,6.38
2022-11-05T14:14:06.801Z,6.60
2022-11-05T14:15:26.339Z,5.88
2022-11-05T14:16:46.299Z,6.15
2022-11-05T14:18:02.192Z,5.43
2022-11-05T14:19:19.552Z,4.90
2022-11-05T14:20:32.707Z,5.43
2022-11-05T14:21:54.974Z,5.88
2022-11-05T14:23:19.133Z,4.95
2022-11-05T14:24:21.589Z,5.03
2022-11-05T14:25:25.140Z,4.80
2022-11-05T14:26:33.128Z,5.10
2022-11-05T14:27:47.414Z,4.82
2022-11-05T14:29:04.661Z,4.50
2022-11-05T14:30:41.381Z,4.18
2022-11-05T14:32:09.573Z,4.13
2022-11-05T14:33:25.632Z,4.28
2022-11-05T14:35:01.699Z,4.07
2022-11-05T14:36:22.187Z,4.55
2022-11-05T14:37:27.519Z,3.92
2022-11-05T14:38:30.013Z,3.97
2022-11-05T14:39:32.803Z,4.10
2022-11-05T14:40:44.337Z,3.83
2022-11-05T14:42:17.396Z,4.05
2022-11-05T14:43:24.501Z,3.60
2022-11-05T14:44:28.457Z,3.72
2022-11-05T14:45:40.527Z,3.63
2022-11-05T14:46:49.158Z,3.60
2022-11-05T14:47:58.251Z,3.53
2022-11-05T14:49:09.181Z,3.08
2022-11-05T14:50:22.398Z,3.20
2022-11-05T14:51:40.182Z,3.25
2022-11-05T14:53:04.583Z,3.40
2022-11-05T14:54:20.740Z,3.00
2022-11-05T14:55:34.720Z,3.05
2022-11-05T14:56:56.274Z,3.25
2022-11-05T14:57:59.093Z,2.97
2022-11-05T14:59:33.062Z,3.20
2022-11-05T15:00:39.680Z,3.00
2022-11-05T15:01:42.244Z,3.80
2022-11-05T15:03:01.279Z,3.45
2022-11-05T15:04:16.204Z,3.10
2022-11-05T15:05:38.901Z,3.30
2022-11-05T15:07:03.853Z,3.50
2022-11-05T15:08:46.861Z,3.22
2022-11-05T15:09:53.333Z,3.45
2022-11-05T15:11:15.032Z,3.42
2022-11-05T15:12:20.355Z,3.13
2022-11-05T15:13:58.696Z,3.15
2022-11-05T15:15:04.008Z,3.00
2022-11-05T15:16:07.452Z,3.08
2022-11-05T15:17:29.561Z,3.90